createdAt,value
2023-11-30T00:00:14.495Z,98360.13
2023-11-30T00:03:17.527Z,98355.78
2023-11-30T00:06:20.640Z,98357.59
2023-11-30T00:09:23.618Z,98356.28
2023-11-30T00:12:27.962Z,98354.47
2023-11-30T00:15:30.971Z,98353.59
2023-11-30T00:18:33.993Z,98358.44
2023-11-30T00:21:36.884Z,98351.50
2023-11-30T00:24:39.845Z,98349.91
2023-11-30T00:27:44.070Z,98359.38
2023-11-30T00:30:47.015Z,98357.81
2023-11-30T00:33:49.956Z,98335.53
2023-11-30T00:36:52.918Z,98334.59
2023-11-30T00:39:55.799Z,98325.97
2023-11-30T00:43:00.259Z,98330.03
2023-11-30T00:46:09.572Z,98328.75
2023-11-30T00:49:13.107Z,98327.13
2023-11-30T00:52:16.040Z,98323.19
2023-11-30T00:55:18.899Z,98330.38
2023-11-30T00:58:23.152Z,98328.38
2023-11-30T01:01:26.060Z,98331.06
2023-11-30T01:04:28.979Z,98338.25
2023-11-30T01:07:31.917Z,98330.88
2023-11-30T01:10:34.823Z,98332.78
2023-11-30T01:13:39.293Z,98319.66
2023-11-30T01:16:42.267Z,98317.50
2023-11-30T01:19:45.156Z,98305.41
2023-11-30T01:22:48.719Z,98312.59
2023-11-30T01:25:51.649Z,98324.59
2023-11-30T01:28:55.975Z,98316.06
2023-11-30T01:31:58.884Z,98311.38
2023-11-30T01:35:01.824Z,98305.63
2023-11-30T01:38:04.697Z,98294.09
2023-11-30T01:41:08.228Z,98274.59
2023-11-30T01:44:12.546Z,98270.34
2023-11-30T01:47:16.073Z,98262.94
2023-11-30T01:50:21.804Z,98270.13
2023-11-30T01:53:24.676Z,98271.25
2023-11-30T01:56:27.619Z,98252.31
2023-11-30T01:59:32.204Z,98258.25
2023-11-30T02:02:35.368Z,98243.19
2023-11-30T02:05:39.755Z,98234.28
2023-11-30T02:08:42.633Z,98232.22
2023-11-30T02:11:45.633Z,98234.22
2023-11-30T02:14:49.920Z,98232.84
2023-11-30T02:17:52.940Z,98221.50
2023-11-30T02:20:55.858Z,98222.13
2023-11-30T02:24:00.225Z,98207.28
2023-11-30T02:27:03.256Z,98210.84
2023-11-30T02:30:07.589Z,98202.88
2023-11-30T02:33:10.533Z,98197.56
2023-11-30T02:36:14.934Z,98208.34
2023-11-30T02:39:19.298Z,98208.81
2023-11-30T02:42:22.437Z,98220.56
2023-11-30T02:45:25.417Z,98214.81
2023-11-30T02:48:28.392Z,98223.78
2023-11-30T02:51:31.449Z,98218.84
2023-11-30T02:54:36.719Z,98195.34
2023-11-30T02:57:39.905Z,98199.34
2023-11-30T03:00:42.856Z,98199.00
2023-11-30T03:03:45.788Z,98208.41
2023-11-30T03:06:51.892Z,98197.28
2023-11-30T03:09:56.160Z,98183.00
2023-11-30T03:13:01.952Z,98166.84
2023-11-30T03:16:05.249Z,98164.56
2023-11-30T03:19:16.341Z,98180.75
2023-11-30T03:22:20.433Z,98185.38
2023-11-30T03:25:24.675Z,98175.28
2023-11-30T03:28:27.538Z,98179.56
2023-11-30T03:31:30.475Z,98176.84
2023-11-30T03:34:33.590Z,98179.19
2023-11-30T03:37:41.450Z,98172.66
2023-11-30T03:40:45.835Z,98169.09
2023-11-30T03:43:48.716Z,98189.34
2023-11-30T03:46:51.639Z,98187.53
2023-11-30T03:49:54.678Z,98183.28
2023-11-30T03:52:57.587Z,98188.41
2023-11-30T03:56:05.309Z,98183.81
2023-11-30T03:59:08.189Z,98182.31
2023-11-30T04:02:11.145Z,98180.47
2023-11-30T04:05:17.413Z,98169.97
2023-11-30T04:08:20.354Z,98159.53
2023-11-30T04:11:24.657Z,98161.00
2023-11-30T04:14:27.594Z,98149.88
2023-11-30T04:17:30.555Z,98144.41
2023-11-30T04:20:33.439Z,98156.66
2023-11-30T04:23:36.321Z,98153.13
2023-11-30T04:26:40.575Z,98144.06
2023-11-30T04:29:43.422Z,98141.63
2023-11-30T04:32:46.391Z,98131.13
2023-11-30T04:35:49.385Z,98126.88
2023-11-30T04:38:52.262Z,98118.72
2023-11-30T04:41:57.742Z,98123.56
2023-11-30T04:45:00.735Z,98119.75
2023-11-30T04:48:04.141Z,98116.97
2023-11-30T04:51:07.919Z,98128.00
2023-11-30T04:54:10.849Z,98123.25
2023-11-30T04:57:15.630Z,98117.88
2023-11-30T05:00:19.519Z,98122.06
2023-11-30T05:03:22.941Z,98135.53
2023-11-30T05:06:26.040Z,98133.94
2023-11-30T05:09:29.234Z,98137.44
2023-11-30T05:12:33.575Z,98117.38
2023-11-30T05:15:39.446Z,98124.41
2023-11-30T05:18:42.544Z,98122.28
2023-11-30T05:21:45.628Z,98132.25
2023-11-30T05:24:48.504Z,98128.44
2023-11-30T05:27:52.827Z,98123.50
2023-11-30T05:30:55.819Z,98130.53
2023-11-30T05:33:58.702Z,98133.66
2023-11-30T05:37:01.636Z,98136.78
2023-11-30T05:40:06.865Z,98145.72
2023-11-30T05:43:13.979Z,98143.13
2023-11-30T05:46:16.895Z,98139.28
2023-11-30T05:49:19.895Z,98145.91
2023-11-30T05:52:22.853Z,98155.63
2023-11-30T05:55:25.785Z,98154.94
2023-11-30T05:58:30.651Z,98161.88
2023-11-30T06:01:33.686Z,98163.81
2023-11-30T06:04:36.690Z,98159.34
2023-11-30T06:07:39.694Z,98146.31
2023-11-30T06:10:42.694Z,98142.84
2023-11-30T06:13:47.145Z,98155.97
2023-11-30T06:16:50.011Z,98180.66
2023-11-30T06:19:52.950Z,98168.75
2023-11-30T06:22:56.081Z,98193.34
2023-11-30T06:25:58.961Z,98193.88
2023-11-30T06:29:03.254Z,98208.16
2023-11-30T06:32:07.103Z,98209.34
2023-11-30T06:35:10.775Z,98201.25
2023-11-30T06:38:14.099Z,98203.94
2023-11-30T06:41:17.013Z,98206.72
2023-11-30T06:44:21.607Z,98214.50
2023-11-30T06:47:24.501Z,98201.09
2023-11-30T06:50:27.447Z,98209.19
2023-11-30T06:53:30.742Z,98223.94
2023-11-30T06:56:33.608Z,98236.31
2023-11-30T06:59:37.875Z,98216.81
2023-11-30T07:02:41.041Z,98218.03
2023-11-30T07:05:43.992Z,98236.56
2023-11-30T07:08:49.846Z,98227.06
2023-11-30T07:11:52.875Z,98228.34
2023-11-30T07:14:57.199Z,98226.44
2023-11-30T07:18:00.315Z,98242.28
2023-11-30T07:21:03.499Z,98249.78
2023-11-30T07:24:07.487Z,98244.03
2023-11-30T07:27:11.533Z,98248.47
2023-11-30T07:30:15.992Z,98264.66
2023-11-30T07:33:19.180Z,98254.78
2023-11-30T07:36:22.061Z,98255.66
2023-11-30T07:39:24.954Z,98255.81
2023-11-30T07:42:32.988Z,98269.22
2023-11-30T07:45:41.933Z,98278.25
2023-11-30T07:48:45.282Z,98278.09
2023-11-30T07:51:48.197Z,98281.97
2023-11-30T07:54:51.087Z,98291.53
2023-11-30T07:57:54.004Z,98309.84
2023-11-30T08:00:59.191Z,98319.41
2023-11-30T08:04:02.183Z,98313.41
2023-11-30T08:07:05.845Z,98325.34
2023-11-30T08:10:09.424Z,98338.66
2023-11-30T08:13:14.587Z,98331.03
2023-11-30T08:16:18.858Z,98339.72
2023-11-30T08:19:22.468Z,98332.63
2023-11-30T08:22:25.993Z,98351.97
2023-11-30T08:25:29.498Z,98374.22
2023-11-30T08:28:32.403Z,98392.53
2023-11-30T08:31:37.914Z,98414.94
2023-11-30T08:34:40.909Z,98405.53
2023-11-30T08:37:43.785Z,98405.63
2023-11-30T08:40:48.402Z,98428.63
2023-11-30T08:43:51.296Z,98435.88
2023-11-30T08:46:55.977Z,98465.50
2023-11-30T08:49:58.924Z,98485.78
2023-11-30T08:53:01.803Z,98512.72
2023-11-30T08:56:04.859Z,98534.72
2023-11-30T08:59:07.777Z,98557.25
2023-11-30T09:02:12.167Z,98575.56
2023-11-30T09:05:15.268Z,98588.19
2023-11-30T09:08:18.248Z,98600.44
2023-11-30T09:11:21.441Z,98616.19
2023-11-30T09:14:24.382Z,98616.06
2023-11-30T09:17:30.585Z,98614.84
2023-11-30T09:20:33.535Z,98611.06
2023-11-30T09:23:39.195Z,98603.56
2023-11-30T09:26:44.536Z,98615.75
2023-11-30T09:29:48.864Z,98610.09
2023-11-30T09:32:55.868Z,98601.03
2023-11-30T09:36:00.470Z,98605.78
2023-11-30T09:39:03.912Z,98610.25
2023-11-30T09:42:07.402Z,98608.81
2023-11-30T09:45:11.561Z,98613.56
2023-11-30T09:48:16.477Z,98610.25
2023-11-30T09:51:22.374Z,98620.06
2023-11-30T09:54:25.352Z,98612.06
2023-11-30T09:57:28.380Z,98606.28
2023-11-30T10:00:31.485Z,98596.66
2023-11-30T10:03:38.728Z,98590.09
2023-11-30T10:06:41.725Z,98572.63
2023-11-30T10:09:44.708Z,98569.69
2023-11-30T10:12:47.660Z,98559.22
2023-11-30T10:15:50.764Z,98557.84
2023-11-30T10:18:55.301Z,98559.50
2023-11-30T10:21:58.371Z,98541.97
2023-11-30T10:25:01.293Z,98534.88
2023-11-30T10:28:05.232Z,98526.75
2023-11-30T10:31:08.369Z,98526.75
2023-11-30T10:34:14.077Z,98548.03
2023-11-30T10:37:20.543Z,98563.47
2023-11-30T10:40:26.410Z,98565.53
2023-11-30T10:43:29.980Z,98562.69
2023-11-30T10:46:34.620Z,98557.25
2023-11-30T10:49:39.205Z,98549.91
2023-11-30T10:52:44.617Z,98533.78
2023-11-30T10:55:47.764Z,98538.16
2023-11-30T10:58:52.473Z,98534.69
2023-11-30T11:01:57.724Z,98529.13
2023-11-30T11:05:04.925Z,98515.91
2023-11-30T11:08:07.777Z,98517.41
2023-11-30T11:11:14.221Z,98503.78
2023-11-30T11:14:34.043Z,98515.94
2023-11-30T11:17:46.790Z,98516.31
2023-11-30T11:20:51.105Z,98522.00
2023-11-30T11:23:54.057Z,98507.78
2023-11-30T11:26:59.588Z,98507.63
2023-11-30T11:30:06.781Z,98518.19
2023-11-30T11:33:09.874Z,98510.53
2023-11-30T11:36:15.566Z,98492.69
2023-11-30T11:39:18.699Z,98489.00
2023-11-30T11:42:21.664Z,98493.09
2023-11-30T11:45:24.950Z,98484.94
2023-11-30T11:48:27.948Z,98481.09
2023-11-30T11:51:32.318Z,98467.50
2023-11-30T11:54:35.291Z,98450.13
2023-11-30T11:57:39.134Z,98453.97
2023-11-30T12:00:42.103Z,98447.00
2023-11-30T12:03:49.290Z,98446.66
2023-11-30T12:06:53.643Z,98437.75
2023-11-30T12:09:57.810Z,98434.50
2023-11-30T12:13:02.356Z,98425.69
2023-11-30T12:16:05.926Z,98435.34
2023-11-30T12:19:08.861Z,98407.38
2023-11-30T12:22:15.183Z,98408.47
2023-11-30T12:25:18.721Z,98400.63
2023-11-30T12:28:21.598Z,98388.56
2023-11-30T12:31:24.541Z,98367.13
2023-11-30T12:34:27.476Z,98371.72
2023-11-30T12:37:31.759Z,98355.44
2023-11-30T12:40:34.746Z,98344.47
2023-11-30T12:43:37.685Z,98340.19
2023-11-30T12:46:40.927Z,98347.59
2023-11-30T12:49:44.188Z,98335.94
2023-11-30T12:52:48.923Z,98334.00
2023-11-30T12:55:52.044Z,98330.53
2023-11-30T12:58:55.346Z,98327.06
2023-11-30T13:01:58.597Z,98322.81
2023-11-30T13:05:01.495Z,98315.41
2023-11-30T13:08:06.467Z,98315.28
2023-11-30T13:11:09.764Z,98309.09
2023-11-30T13:14:13.348Z,98293.13
2023-11-30T13:17:18.225Z,98293.00
2023-11-30T13:20:21.203Z,98277.53
2023-11-30T13:23:25.901Z,98258.13
2023-11-30T13:26:28.913Z,98239.75
2023-11-30T13:29:31.789Z,98235.97
2023-11-30T13:32:36.684Z,98223.41
2023-11-30T13:35:41.000Z,98207.16
2023-11-30T13:38:45.417Z,98207.91
2023-11-30T13:41:48.364Z,98209.34
2023-11-30T13:44:51.233Z,98194.59
2023-11-30T13:47:54.185Z,98191.47
2023-11-30T13:51:00.832Z,98182.44
2023-11-30T13:54:06.842Z,98172.31
2023-11-30T13:57:09.830Z,98190.47
2023-11-30T14:00:14.193Z,98181.13
2023-11-30T14:03:17.701Z,98168.34
2023-11-30T14:06:20.989Z,98155.25
2023-11-30T14:09:28.108Z,98146.41
2023-11-30T14:12:31.072Z,98146.75
2023-11-30T14:15:34.289Z,98137.38
2023-11-30T14:18:37.304Z,98128.84
2023-11-30T14:21:40.341Z,98126.00
2023-11-30T14:24:44.784Z,98119.13
2023-11-30T14:27:48.721Z,98125.72
2023-11-30T14:30:52.210Z,98105.16
2023-11-30T14:33:56.694Z,98094.34
2023-11-30T14:36:59.598Z,98089.97
2023-11-30T14:40:05.349Z,98080.31
2023-11-30T14:43:08.369Z,98072.19
2023-11-30T14:46:11.278Z,98062.16
2023-11-30T14:49:14.320Z,98066.38
2023-11-30T14:52:17.207Z,98054.00
2023-11-30T14:55:21.940Z,98046.66
2023-11-30T14:58:24.955Z,98043.94
2023-11-30T15:01:28.329Z,98036.88
2023-11-30T15:04:33.000Z,98035.69
2023-11-30T15:07:36.104Z,98032.56
2023-11-30T15:10:40.400Z,98034.13
2023-11-30T15:13:43.398Z,98013.63
2023-11-30T15:16:46.353Z,98005.50
2023-11-30T15:19:49.245Z,97991.53
2023-11-30T15:22:52.183Z,97984.19
2023-11-30T15:25:56.439Z,97985.00
2023-11-30T15:28:59.375Z,97967.97
2023-11-30T15:32:02.269Z,97967.97
2023-11-30T15:35:06.045Z,97954.81
2023-11-30T15:38:09.305Z,97952.47
2023-11-30T15:41:13.540Z,97953.97
2023-11-30T15:44:16.438Z,97959.81
2023-11-30T15:47:19.545Z,97948.97
2023-11-30T15:50:22.524Z,97942.72
2023-11-30T15:53:25.481Z,97934.63
2023-11-30T15:56:29.730Z,97929.63
2023-11-30T15:59:32.690Z,97929.22
2023-11-30T16:02:36.163Z,97920.72
2023-11-30T16:05:39.801Z,97909.13
2023-11-30T16:08:42.798Z,97904.88
2023-11-30T16:11:49.876Z,97903.38
2023-11-30T16:14:53.058Z,97908.78
2023-11-30T16:17:55.996Z,97890.56
2023-11-30T16:20:58.949Z,97887.09
2023-11-30T16:24:01.931Z,97882.44
2023-11-30T16:27:06.661Z,97888.19
2023-11-30T16:30:11.882Z,97881.25
2023-11-30T16:33:14.852Z,97863.44
2023-11-30T16:36:17.865Z,97870.00
2023-11-30T16:39:23.835Z,97859.22
2023-11-30T16:42:29.510Z,97847.25
2023-11-30T16:45:32.578Z,97843.75
2023-11-30T16:48:35.580Z,97852.72
2023-11-30T16:51:41.662Z,97849.63
2023-11-30T16:54:46.856Z,97854.63
2023-11-30T16:57:51.239Z,97859.66
2023-11-30T17:00:54.226Z,97859.63
2023-11-30T17:03:57.331Z,97846.53
2023-11-30T17:07:00.674Z,97851.94
2023-11-30T17:10:03.805Z,97860.47
2023-11-30T17:13:08.429Z,97850.41
2023-11-30T17:16:12.193Z,97855.81
2023-11-30T17:19:15.425Z,97848.03
2023-11-30T17:22:18.292Z,97850.41
2023-11-30T17:25:21.850Z,97844.16
2023-11-30T17:28:26.174Z,97850.41
2023-11-30T17:31:29.094Z,97846.03
2023-11-30T17:34:32.476Z,97850.59
2023-11-30T17:37:35.478Z,97849.38
2023-11-30T17:40:38.369Z,97854.72
2023-11-30T17:43:42.820Z,97840.81
2023-11-30T17:46:45.884Z,97823.53
2023-11-30T17:49:49.086Z,97801.56
2023-11-30T17:52:52.122Z,97804.28
2023-11-30T17:55:55.020Z,97798.03
2023-11-30T17:58:59.230Z,97791.47
2023-11-30T18:02:02.645Z,97786.88
2023-11-30T18:05:06.372Z,97801.97
2023-11-30T18:08:09.256Z,97798.44
2023-11-30T18:11:12.140Z,97796.09
2023-11-30T18:14:16.435Z,97779.47
2023-11-30T18:17:19.412Z,97779.88
2023-11-30T18:20:22.300Z,97781.06
2023-11-30T18:23:25.164Z,97789.09
2023-11-30T18:26:28.094Z,97788.38
2023-11-30T18:29:32.401Z,97802.28
2023-11-30T18:32:35.346Z,97792.94
2023-11-30T18:35:41.108Z,97783.94
2023-11-30T18:38:50.426Z,97792.44
2023-11-30T18:41:56.719Z,97793.94
2023-11-30T18:45:02.901Z,97795.91
2023-11-30T18:48:07.670Z,97773.41
2023-11-30T18:51:12.869Z,97797.81
2023-11-30T18:54:18.828Z,97790.81
2023-11-30T18:57:23.898Z,97768.44
2023-11-30T19:00:30.211Z,97759.09
2023-11-30T19:03:34.273Z,97749.50
2023-11-30T19:06:38.785Z,97756.44
2023-11-30T19:09:43.380Z,97746.38
2023-11-30T19:12:48.220Z,97734.41
2023-11-30T19:15:53.888Z,97719.75
2023-11-30T19:18:57.951Z,97695.06
2023-11-30T19:22:01.793Z,97709.00
2023-11-30T19:25:06.939Z,97719.44
2023-11-30T19:28:10.941Z,97727.88
2023-11-30T19:31:16.957Z,97718.94
2023-11-30T19:34:21.874Z,97708.94
2023-11-30T19:37:26.367Z,97711.25
2023-11-30T19:40:31.075Z,97715.84
2023-11-30T19:43:35.978Z,97710.00
2023-11-30T19:46:42.536Z,97694.81
2023-11-30T19:49:48.006Z,97692.50
2023-11-30T19:52:52.539Z,97697.47
2023-11-30T19:55:56.788Z,97692.44
2023-11-30T19:59:01.482Z,97675.81
2023-11-30T20:02:08.146Z,97659.94
2023-11-30T20:05:14.038Z,97654.09
2023-11-30T20:08:18.715Z,97636.69
2023-11-30T20:11:24.093Z,97627.03
2023-11-30T20:14:28.672Z,97627.41
2023-11-30T20:17:35.157Z,97623.91
2023-11-30T20:20:39.758Z,97623.50
2023-11-30T20:23:44.335Z,97635.47
2023-11-30T20:26:49.829Z,97632.06
2023-11-30T20:29:54.275Z,97617.00
2023-11-30T20:33:00.908Z,97591.22
2023-11-30T20:36:05.056Z,97585.84
2023-11-30T20:39:09.652Z,97590.84
2023-11-30T20:42:13.995Z,97576.88
2023-11-30T20:45:17.841Z,97569.94
2023-11-30T20:48:23.004Z,97575.31
2023-11-30T20:51:26.389Z,97559.81
2023-11-30T20:54:31.619Z,97539.38
2023-11-30T20:57:36.379Z,97528.97
2023-11-30T21:00:39.363Z,97503.44
2023-11-30T21:03:43.925Z,97497.25
2023-11-30T21:06:46.861Z,97495.72
2023-11-30T21:09:49.792Z,97505.03
2023-11-30T21:12:52.729Z,97510.44
2023-11-30T21:15:55.657Z,97505.34
2023-11-30T21:19:00.021Z,97493.03
2023-11-30T21:22:03.105Z,97483.38
2023-11-30T21:25:06.427Z,97463.69
2023-11-30T21:28:10.037Z,97455.25
2023-11-30T21:31:13.251Z,97450.97
2023-11-30T21:34:17.610Z,97457.16
2023-11-30T21:37:20.476Z,97436.28
2023-11-30T21:40:23.402Z,97438.28
2023-11-30T21:43:27.678Z,97432.09
2023-11-30T21:46:30.572Z,97429.00
2023-11-30T21:49:34.843Z,97420.13
2023-11-30T21:52:37.992Z,97434.41
2023-11-30T21:55:41.180Z,97446.88
2023-11-30T21:58:44.108Z,97446.47
2023-11-30T22:01:47.316Z,97432.56
2023-11-30T22:04:51.862Z,97439.88
2023-11-30T22:07:54.788Z,97434.47
2023-11-30T22:10:57.728Z,97454.59
2023-11-30T22:14:00.676Z,97463.03
2023-11-30T22:17:04.545Z,97456.88
2023-11-30T22:20:10.550Z,97469.59
2023-11-30T22:23:14.178Z,97448.34
2023-11-30T22:26:17.132Z,97455.75
2023-11-30T22:29:20.038Z,97459.97
2023-11-30T22:32:22.974Z,97464.97
2023-11-30T22:35:28.129Z,97469.97
2023-11-30T22:38:35.400Z,97485.81
2023-11-30T22:41:41.654Z,97465.00
2023-11-30T22:44:44.623Z,97460.75
2023-11-30T22:47:47.540Z,97446.47
2023-11-30T22:50:51.929Z,97430.59
2023-11-30T22:53:54.834Z,97426.72
2023-11-30T22:56:57.737Z,97434.06
2023-11-30T23:00:00.708Z,97454.94
2023-11-30T23:03:03.923Z,97455.34
2023-11-30T23:06:09.087Z,97444.91
2023-11-30T23:09:11.996Z,97449.53
2023-11-30T23:12:15.749Z,97450.28
2023-11-30T23:15:18.669Z,97440.25
2023-11-30T23:18:21.558Z,97441.78
2023-11-30T23:21:26.625Z,97445.66
2023-11-30T23:24:32.067Z,97468.84
2023-11-30T23:27:35.322Z,97478.09
2023-11-30T23:30:38.372Z,97468.84
2023-11-30T23:33:41.405Z,97449.59
2023-11-30T23:36:45.716Z,97454.97
2023-11-30T23:39:50.410Z,97458.81
2023-11-30T23:42:53.276Z,97472.31
2023-11-30T23:45:56.213Z,97474.69
2023-11-30T23:48:59.208Z,97451.22
2023-11-30T23:52:03.572Z,97467.41
2023-11-30T23:55:07.188Z,97453.88
2023-11-30T23:58:10.249Z,97456.91
